sensor_id;sensor_type;location;lat;lon;timestamp;P1;durP1;ratioP1;P2;durP2;ratioP2
4808;SDS011;2418;49.930;8.606;2023-04-29T00:02:16;5.68;;;5.32;;
4808;SDS011;2418;49.930;8.606;2023-04-29T00:04:42;5.95;;;5.50;;
4808;SDS011;2418;49.930;8.606;2023-04-29T00:07:08;5.72;;;5.53;;
4808;SDS011;2418;49.930;8.606;2023-04-29T00:09:34;7.20;;;6.60;;
4808;SDS011;2418;49.930;8.606;2023-04-29T00:12:01;6.88;;;6.20;;
4808;SDS011;2418;49.930;8.606;2023-04-29T00:14:27;6.10;;;5.90;;
4808;SDS011;2418;49.930;8.606;2023-04-29T00:16:53;6.70;;;6.30;;
4808;SDS011;2418;49.930;8.606;2023-04-29T00:19:19;7.20;;;6.80;;
4808;SDS011;2418;49.930;8.606;2023-04-29T00:21:45;6.78;;;6.18;;
4808;SDS011;2418;49.930;8.606;2023-04-29T00:24:11;7.00;;;6.50;;
4808;SDS011;2418;49.930;8.606;2023-04-29T00:26:37;8.98;;;8.07;;
4808;SDS011;2418;49.930;8.606;2023-04-29T00:29:03;9.25;;;8.32;;
4808;SDS011;2418;49.930;8.606;2023-04-29T00:31:28;11.03;;;9.10;;
4808;SDS011;2418;49.930;8.606;2023-04-29T00:33:56;14.57;;;10.27;;
4808;SDS011;2418;49.930;8.606;2023-04-29T00:36:22;12.13;;;10.20;;
4808;SDS011;2418;49.930;8.606;2023-04-29T00:38:48;11.38;;;9.98;;
4808;SDS011;2418;49.930;8.606;2023-04-29T00:41:14;13.55;;;10.10;;
4808;SDS011;2418;49.930;8.606;2023-04-29T00:43:40;11.03;;;9.90;;
4808;SDS011;2418;49.930;8.606;2023-04-29T00:46:06;9.02;;;8.32;;
4808;SDS011;2418;49.930;8.606;2023-04-29T00:48:33;9.52;;;8.63;;
4808;SDS011;2418;49.930;8.606;2023-04-29T00:50:59;9.95;;;9.02;;
4808;SDS011;2418;49.930;8.606;2023-04-29T00:53:25;10.65;;;9.18;;
4808;SDS011;2418;49.930;8.606;2023-04-29T00:55:51;11.35;;;9.70;;
4808;SDS011;2418;49.930;8.606;2023-04-29T00:58:17;11.23;;;8.98;;
4808;SDS011;2418;49.930;8.606;2023-04-29T01:00:44;9.90;;;8.75;;
4808;SDS011;2418;49.930;8.606;2023-04-29T01:03:11;10.57;;;8.68;;
4808;SDS011;2418;49.930;8.606;2023-04-29T01:05:37;10.35;;;9.20;;
4808;SDS011;2418;49.930;8.606;2023-04-29T01:08:20;11.82;;;8.77;;
4808;SDS011;2418;49.930;8.606;2023-04-29T01:11:02;9.52;;;8.63;;
4808;SDS011;2418;49.930;8.606;2023-04-29T01:13:40;11.05;;;9.75;;
4808;SDS011;2418;49.930;8.606;2023-04-29T01:16:10;11.35;;;9.73;;
4808;SDS011;2418;49.930;8.606;2023-04-29T01:18:38;12.38;;;9.75;;
4808;SDS011;2418;49.930;8.606;2023-04-29T01:21:05;11.50;;;9.82;;
4808;SDS011;2418;49.930;8.606;2023-04-29T01:23:32;16.45;;;10.20;;
4808;SDS011;2418;49.930;8.606;2023-04-29T01:25:58;15.20;;;11.20;;
4808;SDS011;2418;49.930;8.606;2023-04-29T01:30:59;12.63;;;11.30;;
4808;SDS011;2418;49.930;8.606;2023-04-29T01:36:21;16.08;;;12.48;;
4808;SDS011;2418;49.930;8.606;2023-04-29T01:43:50;14.50;;;12.35;;
4808;SDS011;2418;49.930;8.606;2023-04-29T01:46:17;12.77;;;11.55;;
4808;SDS011;2418;49.930;8.606;2023-04-29T01:48:43;13.13;;;11.32;;
4808;SDS011;2418;49.930;8.606;2023-04-29T01:51:10;14.88;;;11.02;;
4808;SDS011;2418;49.930;8.606;2023-04-29T01:53:36;12.85;;;11.52;;
4808;SDS011;2418;49.930;8.606;2023-04-29T01:56:04;12.75;;;11.55;;
4808;SDS011;2418;49.930;8.606;2023-04-29T01:58:30;11.68;;;10.68;;
4808;SDS011;2418;49.930;8.606;2023-04-29T02:00:56;12.95;;;11.70;;
4808;SDS011;2418;49.930;8.606;2023-04-29T02:03:22;13.77;;;12.38;;
4808;SDS011;2418;49.930;8.606;2023-04-29T02:05:48;11.60;;;10.50;;
4808;SDS011;2418;49.930;8.606;2023-04-29T02:08:15;11.90;;;10.80;;
4808;SDS011;2418;49.930;8.606;2023-04-29T02:10:41;12.80;;;11.50;;
4808;SDS011;2418;49.930;8.606;2023-04-29T02:13:15;13.18;;;11.77;;
4808;SDS011;2418;49.930;8.606;2023-04-29T02:15:41;12.63;;;11.32;;
4808;SDS011;2418;49.930;8.606;2023-04-29T02:18:07;12.10;;;10.77;;
4808;SDS011;2418;49.930;8.606;2023-04-29T02:20:33;12.00;;;10.80;;
4808;SDS011;2418;49.930;8.606;2023-04-29T02:22:59;13.98;;;11.57;;
4808;SDS011;2418;49.930;8.606;2023-04-29T02:25:25;13.25;;;11.40;;
4808;SDS011;2418;49.930;8.606;2023-04-29T02:27:50;10.75;;;9.65;;
4808;SDS011;2418;49.930;8.606;2023-04-29T02:30:17;13.07;;;10.65;;
4808;SDS011;2418;49.930;8.606;2023-04-29T02:32:42;11.65;;;10.63;;
4808;SDS011;2418;49.930;8.606;2023-04-29T02:35:08;12.15;;;10.95;;
4808;SDS011;2418;49.930;8.606;2023-04-29T02:37:34;12.52;;;11.35;;
4808;SDS011;2418;49.930;8.606;2023-04-29T02:40:00;12.20;;;10.65;;
4808;SDS011;2418;49.930;8.606;2023-04-29T02:42:27;12.93;;;10.20;;
4808;SDS011;2418;49.930;8.606;2023-04-29T02:44:53;10.13;;;9.30;;
4808;SDS011;2418;49.930;8.606;2023-04-29T02:47:18;9.73;;;8.80;;
4808;SDS011;2418;49.930;8.606;2023-04-29T02:49:44;9.20;;;8.40;;
4808;SDS011;2418;49.930;8.606;2023-04-29T02:52:10;8.40;;;7.80;;
4808;SDS011;2418;49.930;8.606;2023-04-29T02:54:37;9.68;;;7.50;;
4808;SDS011;2418;49.930;8.606;2023-04-29T02:57:05;7.80;;;7.10;;
4808;SDS011;2418;49.930;8.606;2023-04-29T02:59:31;9.27;;;7.53;;
4808;SDS011;2418;49.930;8.606;2023-04-29T03:01:57;9.98;;;7.97;;
4808;SDS011;2418;49.930;8.606;2023-04-29T03:04:23;8.23;;;7.63;;
4808;SDS011;2418;49.930;8.606;2023-04-29T03:06:49;11.35;;;7.72;;
4808;SDS011;2418;49.930;8.606;2023-04-29T03:09:15;8.70;;;7.80;;
4808;SDS011;2418;49.930;8.606;2023-04-29T03:11:41;7.72;;;7.13;;
4808;SDS011;2418;49.930;8.606;2023-04-29T03:14:07;7.82;;;7.22;;
4808;SDS011;2418;49.930;8.606;2023-04-29T03:16:33;7.50;;;6.80;;
4808;SDS011;2418;49.930;8.606;2023-04-29T03:18:59;9.57;;;7.63;;
4808;SDS011;2418;49.930;8.606;2023-04-29T03:21:25;8.90;;;8.20;;
4808;SDS011;2418;49.930;8.606;2023-04-29T03:23:51;8.10;;;7.60;;
4808;SDS011;2418;49.930;8.606;2023-04-29T03:26:17;10.93;;;7.63;;
4808;SDS011;2418;49.930;8.606;2023-04-29T03:28:43;8.57;;;7.70;;
4808;SDS011;2418;49.930;8.606;2023-04-29T03:31:09;9.80;;;8.07;;
4808;SDS011;2418;49.930;8.606;2023-04-29T03:33:36;8.35;;;7.78;;
4808;SDS011;2418;49.930;8.606;2023-04-29T03:36:02;8.82;;;8.02;;
4808;SDS011;2418;49.930;8.606;2023-04-29T03:38:28;10.73;;;8.57;;
4808;SDS011;2418;49.930;8.606;2023-04-29T03:40:54;8.30;;;7.70;;
4808;SDS011;2418;49.930;8.606;2023-04-29T03:43:20;8.13;;;7.47;;
4808;SDS011;2418;49.930;8.606;2023-04-29T03:45:46;7.93;;;7.43;;
4808;SDS011;2418;49.930;8.606;2023-04-29T03:48:11;8.10;;;7.40;;
4808;SDS011;2418;49.930;8.606;2023-04-29T03:50:38;8.70;;;7.40;;
4808;SDS011;2418;49.930;8.606;2023-04-29T03:53:04;8.30;;;7.90;;
4808;SDS011;2418;49.930;8.606;2023-04-29T03:55:30;8.70;;;8.00;;
4808;SDS011;2418;49.930;8.606;2023-04-29T03:57:56;8.30;;;7.60;;
4808;SDS011;2418;49.930;8.606;2023-04-29T04:00:22;8.98;;;7.50;;
4808;SDS011;2418;49.930;8.606;2023-04-29T04:02:50;7.90;;;7.40;;
4808;SDS011;2418;49.930;8.606;2023-04-29T04:05:16;8.60;;;6.87;;
4808;SDS011;2418;49.930;8.606;2023-04-29T04:07:44;8.90;;;8.00;;
4808;SDS011;2418;49.930;8.606;2023-04-29T04:10:10;8.50;;;7.50;;
4808;SDS011;2418;49.930;8.606;2023-04-29T04:12:36;10.10;;;8.35;;
4808;SDS011;2418;49.930;8.606;2023-04-29T04:15:02;8.02;;;7.53;;
4808;SDS011;2418;49.930;8.606;2023-04-29T04:17:28;8.57;;;7.70;;
4808;SDS011;2418;49.930;8.606;2023-04-29T04:19:54;9.27;;;8.47;;
4808;SDS011;2418;49.930;8.606;2023-04-29T04:22:20;8.35;;;7.85;;
4808;SDS011;2418;49.930;8.606;2023-04-29T04:24:46;9.05;;;8.15;;
4808;SDS011;2418;49.930;8.606;2023-04-29T04:27:12;8.20;;;7.40;;
4808;SDS011;2418;49.930;8.606;2023-04-29T04:29:38;8.10;;;7.60;;
4808;SDS011;2418;49.930;8.606;2023-04-29T04:32:04;7.28;;;6.78;;
4808;SDS011;2418;49.930;8.606;2023-04-29T04:34:30;7.78;;;7.20;;
4808;SDS011;2418;49.930;8.606;2023-04-29T04:36:56;7.47;;;6.78;;
4808;SDS011;2418;49.930;8.606;2023-04-29T04:39:22;7.80;;;7.20;;
4808;SDS011;2418;49.930;8.606;2023-04-29T04:41:48;6.80;;;6.40;;
4808;SDS011;2418;49.930;8.606;2023-04-29T04:44:14;6.47;;;6.13;;
4808;SDS011;2418;49.930;8.606;2023-04-29T04:46:40;6.40;;;6.10;;
4808;SDS011;2418;49.930;8.606;2023-04-29T04:49:07;6.85;;;5.82;;
4808;SDS011;2418;49.930;8.606;2023-04-29T04:51:33;5.13;;;4.82;;
4808;SDS011;2418;49.930;8.606;2023-04-29T04:53:59;5.63;;;5.13;;
4808;SDS011;2418;49.930;8.606;2023-04-29T04:56:25;8.47;;;4.90;;
4808;SDS011;2418;49.930;8.606;2023-04-29T04:58:51;5.82;;;5.38;;
4808;SDS011;2418;49.930;8.606;2023-04-29T05:01:17;5.30;;;5.10;;
4808;SDS011;2418;49.930;8.606;2023-04-29T05:03:42;5.55;;;5.20;;
4808;SDS011;2418;49.930;8.606;2023-04-29T05:06:08;5.70;;;5.30;;
4808;SDS011;2418;49.930;8.606;2023-04-29T05:08:35;4.82;;;4.50;;
4808;SDS011;2418;49.930;8.606;2023-04-29T05:11:01;5.90;;;5.40;;
4808;SDS011;2418;49.930;8.606;2023-04-29T05:13:27;6.10;;;4.85;;
4808;SDS011;2418;49.930;8.606;2023-04-29T05:15:53;5.30;;;5.00;;
4808;SDS011;2418;49.930;8.606;2023-04-29T05:18:19;5.63;;;5.30;;
4808;SDS011;2418;49.930;8.606;2023-04-29T05:20:45;4.88;;;4.68;;
4808;SDS011;2418;49.930;8.606;2023-04-29T05:23:11;5.50;;;5.20;;
4808;SDS011;2418;49.930;8.606;2023-04-29T05:25:36;5.23;;;4.93;;
4808;SDS011;2418;49.930;8.606;2023-04-29T05:28:03;5.68;;;5.47;;
4808;SDS011;2418;49.930;8.606;2023-04-29T05:30:29;5.10;;;4.80;;
4808;SDS011;2418;49.930;8.606;2023-04-29T05:32:54;5.45;;;5.15;;
4808;SDS011;2418;49.930;8.606;2023-04-29T05:35:21;6.10;;;5.80;;
4808;SDS011;2418;49.930;8.606;2023-04-29T05:37:47;5.85;;;5.65;;
4808;SDS011;2418;49.930;8.606;2023-04-29T05:40:13;5.85;;;5.25;;
4808;SDS011;2418;49.930;8.606;2023-04-29T05:42:39;5.30;;;5.10;;
4808;SDS011;2418;49.930;8.606;2023-04-29T05:45:05;7.70;;;5.93;;
4808;SDS011;2418;49.930;8.606;2023-04-29T05:47:31;9.63;;;7.80;;
4808;SDS011;2418;49.930;8.606;2023-04-29T05:49:57;10.10;;;9.30;;
4808;SDS011;2418;49.930;8.606;2023-04-29T05:52:24;10.75;;;9.75;;
4808;SDS011;2418;49.930;8.606;2023-04-29T05:54:50;12.32;;;11.05;;
4808;SDS011;2418;49.930;8.606;2023-04-29T05:57:16;12.82;;;11.52;;
4808;SDS011;2418;49.930;8.606;2023-04-29T05:59:45;16.77;;;11.68;;
4808;SDS011;2418;49.930;8.606;2023-04-29T06:02:12;15.88;;;11.90;;
4808;SDS011;2418;49.930;8.606;2023-04-29T06:04:38;13.35;;;11.98;;
4808;SDS011;2418;49.930;8.606;2023-04-29T06:07:05;19.10;;;12.97;;
4808;SDS011;2418;49.930;8.606;2023-04-29T06:09:33;13.10;;;11.77;;
4808;SDS011;2418;49.930;8.606;2023-04-29T06:11:59;13.53;;;12.10;;
4808;SDS011;2418;49.930;8.606;2023-04-29T06:14:27;12.55;;;11.30;;
4808;SDS011;2418;49.930;8.606;2023-04-29T06:16:52;14.73;;;11.68;;
4808;SDS011;2418;49.930;8.606;2023-04-29T06:19:19;12.60;;;10.80;;
4808;SDS011;2418;49.930;8.606;2023-04-29T06:21:45;17.80;;;11.55;;
4808;SDS011;2418;49.930;8.606;2023-04-29T06:24:11;11.25;;;10.10;;
4808;SDS011;2418;49.930;8.606;2023-04-29T06:26:37;17.52;;;11.73;;
4808;SDS011;2418;49.930;8.606;2023-04-29T06:29:03;10.70;;;9.60;;
4808;SDS011;2418;49.930;8.606;2023-04-29T06:31:29;12.70;;;9.37;;
4808;SDS011;2418;49.930;8.606;2023-04-29T06:33:55;10.82;;;8.98;;
4808;SDS011;2418;49.930;8.606;2023-04-29T06:36:21;10.95;;;9.57;;
4808;SDS011;2418;49.930;8.606;2023-04-29T06:38:47;11.07;;;7.17;;
4808;SDS011;2418;49.930;8.606;2023-04-29T06:41:13;10.15;;;8.00;;
4808;SDS011;2418;49.930;8.606;2023-04-29T06:43:40;8.70;;;7.90;;
4808;SDS011;2418;49.930;8.606;2023-04-29T06:46:07;8.68;;;7.97;;
4808;SDS011;2418;49.930;8.606;2023-04-29T06:48:33;9.63;;;8.45;;
4808;SDS011;2418;49.930;8.606;2023-04-29T06:50:59;9.15;;;8.23;;
4808;SDS011;2418;49.930;8.606;2023-04-29T06:53:25;9.70;;;8.00;;
4808;SDS011;2418;49.930;8.606;2023-04-29T06:55:51;8.57;;;7.77;;
4808;SDS011;2418;49.930;8.606;2023-04-29T06:58:17;10.30;;;7.50;;
4808;SDS011;2418;49.930;8.606;2023-04-29T07:00:44;8.82;;;7.50;;
4808;SDS011;2418;49.930;8.606;2023-04-29T07:03:10;7.97;;;7.30;;
4808;SDS011;2418;49.930;8.606;2023-04-29T07:05:36;8.50;;;7.57;;
4808;SDS011;2418;49.930;8.606;2023-04-29T07:08:10;8.38;;;7.65;;
4808;SDS011;2418;49.930;8.606;2023-04-29T07:10:36;6.38;;;5.88;;
4808;SDS011;2418;49.930;8.606;2023-04-29T07:13:02;6.68;;;6.07;;
4808;SDS011;2418;49.930;8.606;2023-04-29T07:15:29;7.47;;;5.50;;
4808;SDS011;2418;49.930;8.606;2023-04-29T07:17:55;5.47;;;5.07;;
4808;SDS011;2418;49.930;8.606;2023-04-29T07:20:21;6.32;;;5.72;;
4808;SDS011;2418;49.930;8.606;2023-04-29T07:22:47;7.03;;;6.32;;
4808;SDS011;2418;49.930;8.606;2023-04-29T07:25:13;6.95;;;6.18;;
4808;SDS011;2418;49.930;8.606;2023-04-29T07:27:39;5.03;;;4.73;;
4808;SDS011;2418;49.930;8.606;2023-04-29T07:30:06;6.05;;;5.55;;
4808;SDS011;2418;49.930;8.606;2023-04-29T07:32:33;6.47;;;5.90;;
4808;SDS011;2418;49.930;8.606;2023-04-29T07:34:59;6.70;;;6.10;;
4808;SDS011;2418;49.930;8.606;2023-04-29T07:37:26;6.03;;;5.57;;
4808;SDS011;2418;49.930;8.606;2023-04-29T07:39:52;6.20;;;5.80;;
4808;SDS011;2418;49.930;8.606;2023-04-29T07:42:18;5.60;;;5.10;;
4808;SDS011;2418;49.930;8.606;2023-04-29T07:44:44;4.95;;;4.72;;
4808;SDS011;2418;49.930;8.606;2023-04-29T07:47:10;5.40;;;4.97;;
4808;SDS011;2418;49.930;8.606;2023-04-29T07:49:36;5.50;;;5.10;;
4808;SDS011;2418;49.930;8.606;2023-04-29T07:52:04;4.70;;;4.40;;
4808;SDS011;2418;49.930;8.606;2023-04-29T07:54:30;5.00;;;4.63;;
4808;SDS011;2418;49.930;8.606;2023-04-29T07:56:59;4.60;;;4.30;;
4808;SDS011;2418;49.930;8.606;2023-04-29T07:59:27;4.78;;;4.47;;
4808;SDS011;2418;49.930;8.606;2023-04-29T08:01:54;4.90;;;4.70;;
4808;SDS011;2418;49.930;8.606;2023-04-29T08:04:21;6.15;;;5.55;;
4808;SDS011;2418;49.930;8.606;2023-04-29T08:06:47;6.38;;;5.00;;
4808;SDS011;2418;49.930;8.606;2023-04-29T08:09:14;4.50;;;4.30;;
4808;SDS011;2418;49.930;8.606;2023-04-29T08:11:40;4.25;;;3.97;;
4808;SDS011;2418;49.930;8.606;2023-04-29T08:14:06;4.20;;;4.00;;
4808;SDS011;2418;49.930;8.606;2023-04-29T08:16:32;4.30;;;4.10;;
4808;SDS011;2418;49.930;8.606;2023-04-29T08:18:58;4.07;;;3.88;;
4808;SDS011;2418;49.930;8.606;2023-04-29T08:21:24;4.50;;;4.30;;
4808;SDS011;2418;49.930;8.606;2023-04-29T08:23:51;3.78;;;3.58;;
4808;SDS011;2418;49.930;8.606;2023-04-29T08:26:19;4.10;;;3.90;;
4808;SDS011;2418;49.930;8.606;2023-04-29T08:28:46;4.15;;;3.92;;
4808;SDS011;2418;49.930;8.606;2023-04-29T08:31:16;4.00;;;3.80;;
4808;SDS011;2418;49.930;8.606;2023-04-29T08:33:42;4.70;;;4.40;;
4808;SDS011;2418;49.930;8.606;2023-04-29T08:36:08;4.05;;;3.75;;
4808;SDS011;2418;49.930;8.606;2023-04-29T08:38:34;5.00;;;4.60;;
4808;SDS011;2418;49.930;8.606;2023-04-29T08:41:00;4.72;;;4.53;;
4808;SDS011;2418;49.930;8.606;2023-04-29T08:43:26;4.95;;;4.65;;
4808;SDS011;2418;49.930;8.606;2023-04-29T08:45:53;5.40;;;4.90;;
4808;SDS011;2418;49.930;8.606;2023-04-29T08:48:23;5.57;;;5.18;;
4808;SDS011;2418;49.930;8.606;2023-04-29T08:50:50;5.38;;;4.88;;
4808;SDS011;2418;49.930;8.606;2023-04-29T08:53:15;4.97;;;4.67;;
4808;SDS011;2418;49.930;8.606;2023-04-29T08:55:42;4.53;;;4.27;;
4808;SDS011;2418;49.930;8.606;2023-04-29T08:58:09;5.70;;;5.10;;
4808;SDS011;2418;49.930;8.606;2023-04-29T09:00:35;5.30;;;5.00;;
4808;SDS011;2418;49.930;8.606;2023-04-29T09:03:21;6.10;;;5.50;;
4808;SDS011;2418;49.930;8.606;2023-04-29T09:05:51;5.70;;;5.28;;
4808;SDS011;2418;49.930;8.606;2023-04-29T09:08:18;5.50;;;5.10;;
4808;SDS011;2418;49.930;8.606;2023-04-29T09:10:46;5.53;;;5.13;;
4808;SDS011;2418;49.930;8.606;2023-04-29T09:13:21;5.25;;;4.85;;
4808;SDS011;2418;49.930;8.606;2023-04-29T09:15:48;5.53;;;5.03;;
4808;SDS011;2418;49.930;8.606;2023-04-29T09:18:39;5.22;;;4.93;;
4808;SDS011;2418;49.930;8.606;2023-04-29T09:21:03;5.97;;;5.47;;
4808;SDS011;2418;49.930;8.606;2023-04-29T09:23:37;5.18;;;4.78;;
4808;SDS011;2418;49.930;8.606;2023-04-29T09:26:03;6.10;;;5.60;;
4808;SDS011;2418;49.930;8.606;2023-04-29T09:28:30;5.90;;;5.40;;
4808;SDS011;2418;49.930;8.606;2023-04-29T09:30:56;5.80;;;5.40;;
4808;SDS011;2418;49.930;8.606;2023-04-29T09:33:22;7.57;;;6.07;;
4808;SDS011;2418;49.930;8.606;2023-04-29T09:35:50;6.13;;;5.40;;
4808;SDS011;2418;49.930;8.606;2023-04-29T09:38:16;6.43;;;5.82;;
4808;SDS011;2418;49.930;8.606;2023-04-29T09:40:42;5.65;;;5.25;;
4808;SDS011;2418;49.930;8.606;2023-04-29T09:43:15;6.35;;;5.72;;
4808;SDS011;2418;49.930;8.606;2023-04-29T09:45:43;5.57;;;5.10;;
4808;SDS011;2418;49.930;8.606;2023-04-29T09:48:09;5.50;;;5.00;;
4808;SDS011;2418;49.930;8.606;2023-04-29T09:50:36;5.72;;;5.15;;
4808;SDS011;2418;49.930;8.606;2023-04-29T09:53:03;4.10;;;3.90;;
4808;SDS011;2418;49.930;8.606;2023-04-29T09:55:31;4.50;;;4.30;;
4808;SDS011;2418;49.930;8.606;2023-04-29T09:57:57;4.97;;;4.68;;
4808;SDS011;2418;49.930;8.606;2023-04-29T10:00:27;4.40;;;4.20;;
4808;SDS011;2418;49.930;8.606;2023-04-29T10:02:56;5.05;;;4.65;;
4808;SDS011;2418;49.930;8.606;2023-04-29T10:05:24;5.60;;;5.10;;
4808;SDS011;2418;49.930;8.606;2023-04-29T10:07:52;5.73;;;5.10;;
4808;SDS011;2418;49.930;8.606;2023-04-29T10:10:18;5.50;;;5.10;;
4808;SDS011;2418;49.930;8.606;2023-04-29T10:12:45;5.90;;;5.40;;
4808;SDS011;2418;49.930;8.606;2023-04-29T10:17:58;5.07;;;4.57;;
4808;SDS011;2418;49.930;8.606;2023-04-29T10:20:28;4.80;;;4.40;;
4808;SDS011;2418;49.930;8.606;2023-04-29T10:22:54;6.20;;;4.10;;
4808;SDS011;2418;49.930;8.606;2023-04-29T10:25:25;4.05;;;3.85;;
4808;SDS011;2418;49.930;8.606;2023-04-29T10:27:52;4.80;;;4.50;;
4808;SDS011;2418;49.930;8.606;2023-04-29T10:30:20;4.50;;;4.10;;
4808;SDS011;2418;49.930;8.606;2023-04-29T10:32:47;4.40;;;4.00;;
4808;SDS011;2418;49.930;8.606;2023-04-29T10:35:14;3.97;;;3.67;;
4808;SDS011;2418;49.930;8.606;2023-04-29T10:37:40;4.45;;;4.05;;
4808;SDS011;2418;49.930;8.606;2023-04-29T10:42:46;3.95;;;3.85;;
4808;SDS011;2418;49.930;8.606;2023-04-29T10:45:46;4.78;;;4.47;;
4808;SDS011;2418;49.930;8.606;2023-04-29T10:48:09;3.95;;;3.70;;
4808;SDS011;2418;49.930;8.606;2023-04-29T10:53:22;4.50;;;4.30;;
4808;SDS011;2418;49.930;8.606;2023-04-29T10:55:52;4.65;;;4.45;;
4808;SDS011;2418;49.930;8.606;2023-04-29T11:01:02;4.20;;;4.00;;
4808;SDS011;2418;49.930;8.606;2023-04-29T11:03:45;4.65;;;4.45;;
4808;SDS011;2418;49.930;8.606;2023-04-29T11:06:11;5.40;;;4.90;;
4808;SDS011;2418;49.930;8.606;2023-04-29T11:08:37;6.25;;;5.65;;
4808;SDS011;2418;49.930;8.606;2023-04-29T11:11:07;5.95;;;5.60;;
4808;SDS011;2418;49.930;8.606;2023-04-29T11:13:36;6.50;;;6.00;;
4808;SDS011;2418;49.930;8.606;2023-04-29T11:18:29;5.70;;;5.30;;
4808;SDS011;2418;49.930;8.606;2023-04-29T11:21:13;5.47;;;5.18;;
4808;SDS011;2418;49.930;8.606;2023-04-29T11:23:40;6.20;;;5.60;;
4808;SDS011;2418;49.930;8.606;2023-04-29T11:26:06;5.40;;;5.10;;
4808;SDS011;2418;49.930;8.606;2023-04-29T11:28:33;5.00;;;4.70;;
4808;SDS011;2418;49.930;8.606;2023-04-29T11:30:59;4.40;;;4.20;;
4808;SDS011;2418;49.930;8.606;2023-04-29T11:33:30;4.80;;;4.60;;
4808;SDS011;2418;49.930;8.606;2023-04-29T11:35:56;4.80;;;4.40;;
4808;SDS011;2418;49.930;8.606;2023-04-29T11:38:24;4.90;;;4.70;;
4808;SDS011;2418;49.930;8.606;2023-04-29T11:40:50;4.10;;;4.00;;
4808;SDS011;2418;49.930;8.606;2023-04-29T11:43:16;3.90;;;3.80;;
4808;SDS011;2418;49.930;8.606;2023-04-29T11:45:45;4.77;;;4.50;;
4808;SDS011;2418;49.930;8.606;2023-04-29T11:48:18;5.25;;;4.95;;
4808;SDS011;2418;49.930;8.606;2023-04-29T11:50:45;4.60;;;4.40;;
4808;SDS011;2418;49.930;8.606;2023-04-29T11:53:13;4.53;;;4.43;;
4808;SDS011;2418;49.930;8.606;2023-04-29T11:55:43;4.53;;;4.43;;
4808;SDS011;2418;49.930;8.606;2023-04-29T11:58:09;4.90;;;4.60;;
4808;SDS011;2418;49.930;8.606;2023-04-29T12:00:37;5.10;;;4.90;;
4808;SDS011;2418;49.930;8.606;2023-04-29T12:03:07;4.80;;;4.60;;
4808;SDS011;2418;49.930;8.606;2023-04-29T12:05:44;4.03;;;3.83;;
4808;SDS011;2418;49.930;8.606;2023-04-29T12:08:10;4.18;;;3.97;;
4808;SDS011;2418;49.930;8.606;2023-04-29T12:10:36;4.22;;;4.13;;
4808;SDS011;2418;49.930;8.606;2023-04-29T12:13:05;4.22;;;4.03;;
4808;SDS011;2418;49.930;8.606;2023-04-29T12:15:32;3.35;;;3.25;;
4808;SDS011;2418;49.930;8.606;2023-04-29T12:17:59;3.55;;;3.35;;
4808;SDS011;2418;49.930;8.606;2023-04-29T12:20:26;3.50;;;3.40;;
4808;SDS011;2418;49.930;8.606;2023-04-29T12:22:53;3.50;;;3.40;;
4808;SDS011;2418;49.930;8.606;2023-04-29T12:25:23;3.70;;;3.40;;
4808;SDS011;2418;49.930;8.606;2023-04-29T12:27:49;3.50;;;3.30;;
4808;SDS011;2418;49.930;8.606;2023-04-29T12:30:15;2.90;;;2.80;;
4808;SDS011;2418;49.930;8.606;2023-04-29T12:32:41;3.50;;;3.30;;
4808;SDS011;2418;49.930;8.606;2023-04-29T12:35:14;3.30;;;3.20;;
4808;SDS011;2418;49.930;8.606;2023-04-29T12:37:41;3.10;;;3.00;;
4808;SDS011;2418;49.930;8.606;2023-04-29T12:40:12;3.90;;;3.80;;
4808;SDS011;2418;49.930;8.606;2023-04-29T12:42:39;4.10;;;3.90;;
4808;SDS011;2418;49.930;8.606;2023-04-29T12:45:05;4.50;;;4.30;;
4808;SDS011;2418;49.930;8.606;2023-04-29T12:47:32;4.30;;;3.90;;
4808;SDS011;2418;49.930;8.606;2023-04-29T12:50:01;4.75;;;4.40;;
4808;SDS011;2418;49.930;8.606;2023-04-29T12:52:27;4.57;;;4.28;;
4808;SDS011;2418;49.930;8.606;2023-04-29T12:54:53;4.28;;;3.97;;
4808;SDS011;2418;49.930;8.606;2023-04-29T12:57:19;3.40;;;3.30;;
4808;SDS011;2418;49.930;8.606;2023-04-29T12:59:46;2.93;;;2.83;;
4808;SDS011;2418;49.930;8.606;2023-04-29T13:02:12;2.78;;;2.78;;
4808;SDS011;2418;49.930;8.606;2023-04-29T13:04:38;3.00;;;2.90;;
4808;SDS011;2418;49.930;8.606;2023-04-29T13:07:04;3.45;;;3.35;;
4808;SDS011;2418;49.930;8.606;2023-04-29T13:09:30;2.60;;;2.50;;
4808;SDS011;2418;49.930;8.606;2023-04-29T13:11:56;3.13;;;3.03;;
4808;SDS011;2418;49.930;8.606;2023-04-29T13:14:23;3.13;;;3.00;;
4808;SDS011;2418;49.930;8.606;2023-04-29T13:16:49;3.60;;;3.33;;
4808;SDS011;2418;49.930;8.606;2023-04-29T13:19:15;2.78;;;2.67;;
4808;SDS011;2418;49.930;8.606;2023-04-29T13:21:41;3.30;;;3.00;;
4808;SDS011;2418;49.930;8.606;2023-04-29T13:24:07;6.03;;;3.78;;
4808;SDS011;2418;49.930;8.606;2023-04-29T13:26:34;3.30;;;3.00;;
4808;SDS011;2418;49.930;8.606;2023-04-29T13:29:00;3.70;;;3.60;;
4808;SDS011;2418;49.930;8.606;2023-04-29T13:31:26;3.10;;;3.00;;
4808;SDS011;2418;49.930;8.606;2023-04-29T13:33:54;3.80;;;3.50;;
4808;SDS011;2418;49.930;8.606;2023-04-29T13:36:20;3.83;;;3.67;;
4808;SDS011;2418;49.930;8.606;2023-04-29T13:38:46;3.25;;;3.15;;
4808;SDS011;2418;49.930;8.606;2023-04-29T13:41:12;3.40;;;3.30;;
4808;SDS011;2418;49.930;8.606;2023-04-29T13:43:38;2.92;;;2.83;;
4808;SDS011;2418;49.930;8.606;2023-04-29T13:46:04;2.72;;;2.63;;
4808;SDS011;2418;49.930;8.606;2023-04-29T13:48:30;2.60;;;2.50;;
4808;SDS011;2418;49.930;8.606;2023-04-29T13:50:56;3.00;;;2.90;;
4808;SDS011;2418;49.930;8.606;2023-04-29T13:53:23;3.45;;;2.58;;
4808;SDS011;2418;49.930;8.606;2023-04-29T13:55:50;2.30;;;2.20;;
4808;SDS011;2418;49.930;8.606;2023-04-29T13:58:16;2.63;;;2.53;;
4808;SDS011;2418;49.930;8.606;2023-04-29T14:00:42;2.70;;;2.60;;
4808;SDS011;2418;49.930;8.606;2023-04-29T14:03:08;5.40;;;2.60;;
4808;SDS011;2418;49.930;8.606;2023-04-29T14:05:34;2.40;;;2.20;;
4808;SDS011;2418;49.930;8.606;2023-04-29T14:08:00;2.10;;;2.10;;
4808;SDS011;2418;49.930;8.606;2023-04-29T14:10:26;2.10;;;2.10;;
4808;SDS011;2418;49.930;8.606;2023-04-29T14:12:52;2.22;;;2.03;;
4808;SDS011;2418;49.930;8.606;2023-04-29T14:15:18;2.60;;;2.60;;
4808;SDS011;2418;49.930;8.606;2023-04-29T14:17:45;2.70;;;2.60;;
4808;SDS011;2418;49.930;8.606;2023-04-29T14:20:14;2.30;;;2.20;;
4808;SDS011;2418;49.930;8.606;2023-04-29T14:22:40;2.03;;;2.03;;
4808;SDS011;2418;49.930;8.606;2023-04-29T14:25:06;2.20;;;2.10;;
4808;SDS011;2418;49.930;8.606;2023-04-29T14:27:32;3.00;;;2.80;;
4808;SDS011;2418;49.930;8.606;2023-04-29T14:29:59;2.70;;;2.60;;
4808;SDS011;2418;49.930;8.606;2023-04-29T14:32:25;2.13;;;2.13;;
4808;SDS011;2418;49.930;8.606;2023-04-29T14:34:51;3.08;;;2.88;;
4808;SDS011;2418;49.930;8.606;2023-04-29T14:37:17;2.55;;;2.38;;
4808;SDS011;2418;49.930;8.606;2023-04-29T14:39:43;2.70;;;2.60;;
4808;SDS011;2418;49.930;8.606;2023-04-29T14:42:10;2.65;;;2.55;;
4808;SDS011;2418;49.930;8.606;2023-04-29T14:44:37;3.00;;;2.90;;
4808;SDS011;2418;49.930;8.606;2023-04-29T14:47:03;2.60;;;2.40;;
4808;SDS011;2418;49.930;8.606;2023-04-29T14:49:29;2.55;;;2.45;;
4808;SDS011;2418;49.930;8.606;2023-04-29T14:51:55;2.30;;;2.10;;
4808;SDS011;2418;49.930;8.606;2023-04-29T14:54:21;2.35;;;2.15;;
4808;SDS011;2418;49.930;8.606;2023-04-29T14:56:47;2.60;;;2.50;;
4808;SDS011;2418;49.930;8.606;2023-04-29T14:59:13;2.80;;;2.60;;
4808;SDS011;2418;49.930;8.606;2023-04-29T15:01:41;2.40;;;2.30;;
4808;SDS011;2418;49.930;8.606;2023-04-29T15:04:07;2.50;;;2.40;;
4808;SDS011;2418;49.930;8.606;2023-04-29T15:06:33;2.35;;;2.35;;
4808;SDS011;2418;49.930;8.606;2023-04-29T15:09:00;2.70;;;2.60;;
4808;SDS011;2418;49.930;8.606;2023-04-29T15:11:26;2.50;;;2.30;;
4808;SDS011;2418;49.930;8.606;2023-04-29T15:13:52;2.95;;;2.85;;
4808;SDS011;2418;49.930;8.606;2023-04-29T15:16:18;2.55;;;2.45;;
4808;SDS011;2418;49.930;8.606;2023-04-29T15:18:44;2.50;;;2.40;;
4808;SDS011;2418;49.930;8.606;2023-04-29T15:21:11;2.22;;;2.13;;
4808;SDS011;2418;49.930;8.606;2023-04-29T15:23:37;2.70;;;2.60;;
4808;SDS011;2418;49.930;8.606;2023-04-29T15:26:03;2.45;;;2.35;;
4808;SDS011;2418;49.930;8.606;2023-04-29T15:28:31;2.60;;;2.50;;
4808;SDS011;2418;49.930;8.606;2023-04-29T15:30:56;2.40;;;2.40;;
4808;SDS011;2418;49.930;8.606;2023-04-29T15:33:26;2.90;;;2.70;;